Time;durP1;ratioP1;P1;durP2;ratioP2;P2;SDS_P1;SDS_P2;PMS_P1;PMS_P2;Temp;Humidity;BMP_temperature;BMP_pressure;BME280_temperature;BME280_humidity;BME280_pressure;Samples;Min_cycle;Max_cycle;Signal;HPM_P1;HPM_P2
2023/07/27 00:02:06;;;;;;;0.10;0.10;;;;;;;19.44;78.33;99269.34;7353283;19;20014;-58
2023/07/27 00:04:32;;;;;;;0.10;0.10;;;;;;;19.43;78.23;99261.56;7354324;19;20061;-58
2023/07/27 00:06:57;;;;;;;0.10;0.10;;;;;;;19.49;78.06;99270.78;7352574;19;20034;-59
2023/07/27 00:09:23;;;;;;;0.03;0.03;;;;;;;19.48;78.35;99274.41;7357333;19;20479;-59
2023/07/27 00:11:48;;;;;;;0.10;0.10;;;;;;;19.48;78.38;99271.75;7352114;19;20950;-59
2023/07/27 00:14:14;;;;;;;0.10;0.10;;;;;;;19.45;78.32;99276.31;7355305;19;20039;-58
2023/07/27 00:16:39;;;;;;;0.10;0.10;;;;;;;19.46;78.53;99277.16;7356669;19;20010;-58
2023/07/27 00:19:04;;;;;;;0.03;0.03;;;;;;;19.39;78.71;99265.41;7354629;19;20862;-59
2023/07/27 00:21:30;;;;;;;0.10;0.10;;;;;;;19.40;78.19;99267.91;7353837;19;20014;-58
2023/07/27 00:23:55;;;;;;;0.10;0.10;;;;;;;19.42;78.40;99268.66;7354642;19;21028;-58
2023/07/27 00:26:21;;;;;;;0.10;0.10;;;;;;;19.42;78.16;99265.16;7356453;19;20490;-59
2023/07/27 00:28:46;;;;;;;0.10;0.10;;;;;;;19.41;78.46;99274.91;7356494;19;20013;-56
2023/07/27 00:31:12;;;;;;;0.10;0.10;;;;;;;19.40;78.75;99278.50;7353328;19;20018;-57
2023/07/27 00:33:37;;;;;;;0.10;0.10;;;;;;;19.40;78.27;99269.72;7354198;19;20019;-59
2023/07/27 00:36:03;;;;;;;0.10;0.10;;;;;;;19.40;78.78;99262.63;7351400;19;20018;-58
2023/07/27 00:38:28;;;;;;;0.10;0.10;;;;;;;19.40;78.17;99273.22;7356972;19;20015;-59
2023/07/27 00:40:54;;;;;;;0.03;0.03;;;;;;;19.42;77.83;99266.00;7354249;19;20010;-59
2023/07/27 00:43:19;;;;;;;0.00;0.00;;;;;;;19.39;78.09;99271.53;7350974;19;20018;-59
2023/07/27 00:45:47;;;;;;;0.03;0.03;;;;;;;19.42;78.14;99266.00;7354208;19;20011;-59
2023/07/27 00:48:13;;;;;;;0.10;0.10;;;;;;;19.40;78.45;99267.09;7355463;19;20026;-56
2023/07/27 00:50:39;;;;;;;0.10;0.10;;;;;;;19.40;78.04;99273.22;7356974;19;20023;-59
2023/07/27 00:53:08;;;;;;;0.10;0.10;;;;;;;19.41;77.98;99274.91;7354418;19;20030;-59
2023/07/27 00:55:34;;;;;;;0.10;0.10;;;;;;;19.40;78.06;99265.28;7353405;19;20355;-59
2023/07/27 00:57:59;;;;;;;0.10;0.10;;;;;;;19.38;78.02;99277.81;7356765;19;20010;-57
2023/07/27 01:00:26;;;;;;;0.10;0.10;;;;;;;19.37;77.92;99273.50;7349173;19;20034;-58
2023/07/27 01:02:51;;;;;;;0.10;0.10;;;;;;;19.36;78.04;99271.81;7354188;19;20014;-59
2023/07/27 01:05:17;;;;;;;0.10;0.10;;;;;;;19.35;78.20;99275.41;7354090;19;20035;-59
2023/07/27 01:07:42;;;;;;;0.10;0.10;;;;;;;19.24;77.86;99261.38;7354208;19;20014;-58
2023/07/27 01:10:09;;;;;;;0.10;0.10;;;;;;;19.33;78.14;99272.03;7355915;19;20427;-59
2023/07/27 01:12:42;;;;;;;0.10;0.10;;;;;;;19.26;78.08;99255.00;7352512;19;20019;-58
2023/07/27 01:15:09;;;;;;;0.10;0.10;;;;;;;19.32;78.68;99275.66;7353281;19;20010;-59
2023/07/27 01:18:10;;;;;;;0.10;0.10;;;;;;;19.35;77.40;99267.47;7354115;19;20018;-58
2023/07/27 01:20:47;;;;;;;0.10;0.10;;;;;;;19.31;78.21;99263.41;7250792;19;2004444;-58
2023/07/27 01:23:22;;;;;;;0.10;0.10;;;;;;;19.30;78.50;99267.00;7350928;19;20014;-59
2023/07/27 01:25:50;;;;;;;0.00;0.00;;;;;;;19.26;78.46;99272.66;7351465;19;20028;-59
2023/07/27 01:28:15;;;;;;;0.00;0.00;;;;;;;19.25;78.43;99269.16;7350492;19;20021;-58
2023/07/27 01:30:54;;;;;;;0.10;0.10;;;;;;;19.26;78.17;99273.53;7355137;19;20002;-58
2023/07/27 01:33:35;;;;;;;0.03;0.03;;;;;;;19.27;77.64;99261.97;7354662;19;20438;-57
2023/07/27 01:36:10;;;;;;;0.10;0.10;;;;;;;19.25;78.03;99258.59;7355430;19;20470;-58
2023/07/27 01:38:41;;;;;;;0.00;0.00;;;;;;;19.23;78.43;99267.63;7350681;19;20018;-58
2023/07/27 01:41:09;;;;;;;0.10;0.10;;;;;;;19.21;78.80;99267.78;7347071;19;20010;-59
2023/07/27 01:43:35;;;;;;;0.00;0.00;;;;;;;19.14;78.49;99259.47;7352227;19;20749;-58
2023/07/27 01:46:03;;;;;;;0.10;0.10;;;;;;;19.10;78.45;99251.91;7355433;19;20018;-59
2023/07/27 01:48:29;;;;;;;0.10;0.10;;;;;;;19.15;78.76;99268.25;7351133;19;20014;-57
2023/07/27 01:50:56;;;;;;;0.10;0.10;;;;;;;19.14;78.58;99261.28;7352791;19;20014;-58
2023/07/27 01:53:24;;;;;;;0.10;0.10;;;;;;;19.02;78.82;99249.06;7351931;19;20366;-58
2023/07/27 01:55:49;;;;;;;;;;;;;;;19.18;76.86;99262.72;7352515;19;20040;-59
2023/07/27 01:58:16;;;;;;;0.10;0.10;;;;;;;19.11;78.39;99261.50;7349001;19;19926;-58
2023/07/27 02:00:42;;;;;;;0.00;0.00;;;;;;;19.09;78.18;99263.44;7355074;19;20427;-59
2023/07/27 02:03:09;;;;;;;0.10;0.10;;;;;;;19.08;78.35;99261.78;7354935;19;20014;-59
2023/07/27 02:05:34;;;;;;;0.10;0.10;;;;;;;19.06;78.80;99258.41;7358290;19;19998;-58
2023/07/27 02:08:00;;;;;;;0.10;0.10;;;;;;;19.03;78.99;99269.25;7352268;19;20648;-59
2023/07/27 02:10:28;;;;;;;0.10;0.10;;;;;;;19.04;78.91;99265.63;7356319;19;20011;-58
2023/07/27 02:13:05;;;;;;;0.10;0.10;;;;;;;19.04;78.32;99260.34;7349990;19;20465;-59
2023/07/27 02:15:36;;;;;;;0.10;0.10;;;;;;;19.03;79.00;99263.94;7354735;19;20011;-59
2023/07/27 02:18:08;;;;;;;0.10;0.10;;;;;;;19.02;79.15;99270.22;7353661;19;20550;-58
2023/07/27 02:20:36;;;;;;;0.10;0.10;;;;;;;19.01;79.01;99276.44;7354823;19;20358;-59
2023/07/27 02:23:04;;;;;;;0.10;0.10;;;;;;;19.00;78.72;99275.59;7349481;19;20086;-58
2023/07/27 02:25:30;;;;;;;0.10;0.10;;;;;;;18.99;78.99;99276.56;7355629;19;20015;-58
2023/07/27 02:30:51;;;;;;;0.10;0.10;;;;;;;19.00;78.90;99282.72;7297719;19;21254;-57
2023/07/27 02:33:17;;;;;;;0.00;0.00;;;;;;;18.98;78.75;99277.53;7341163;19;20015;-58
2023/07/27 02:35:42;;;;;;;0.10;0.10;;;;;;;18.99;78.83;99278.38;7352947;19;20021;-58
2023/07/27 02:38:07;;;;;;;0.10;0.10;;;;;;;18.97;78.96;99280.31;7349605;19;20481;-58
2023/07/27 02:40:33;;;;;;;0.00;0.00;;;;;;;18.97;79.01;99281.16;7357069;19;20048;-58
2023/07/27 02:42:58;;;;;;;0.03;0.03;;;;;;;18.98;78.56;99288.13;7358322;19;20706;-58
2023/07/27 02:45:23;;;;;;;0.10;0.10;;;;;;;18.94;78.57;99281.41;7360635;19;20013;-58
2023/07/27 02:47:49;;;;;;;0.10;0.10;;;;;;;18.87;78.87;99275.75;7358039;19;20111;-58
2023/07/27 02:50:14;;;;;;;0.10;0.10;;;;;;;18.89;78.51;99276.47;7359024;19;20888;-58
2023/07/27 02:52:43;;;;;;;0.05;0.05;;;;;;;18.91;78.48;99281.66;7359997;19;20108;-58
2023/07/27 02:55:09;;;;;;;0.10;0.10;;;;;;;18.85;78.68;99280.31;7362186;19;20014;-59
2023/07/27 02:57:35;;;;;;;0.00;0.00;;;;;;;18.83;78.32;99284.06;7360345;19;20010;-59
2023/07/27 03:00:01;;;;;;;0.10;0.10;;;;;;;18.80;78.88;99294.88;7360537;19;20046;-58
2023/07/27 03:02:27;;;;;;;0.10;0.10;;;;;;;18.77;78.82;99288.03;7356917;19;20007;-58
2023/07/27 03:04:52;;;;;;;0.05;0.05;;;;;;;18.63;78.43;99267.09;7352994;19;20466;-59
2023/07/27 03:07:17;;;;;;;0.05;0.05;;;;;;;18.69;78.71;99287.78;7361622;19;20006;-58
2023/07/27 03:09:43;;;;;;;0.10;0.10;;;;;;;18.70;79.01;99300.03;7357417;19;20442;-58
2023/07/27 03:12:08;;;;;;;0.10;0.10;;;;;;;18.67;79.08;99303.75;7358478;19;20018;-58
2023/07/27 03:14:34;;;;;;;0.10;0.10;;;;;;;18.67;78.69;99300.28;7360814;19;20014;-58
2023/07/27 03:16:59;;;;;;;0.10;0.10;;;;;;;18.65;78.60;99302.16;7361056;19;20493;-57
2023/07/27 03:19:26;;;;;;;0.10;0.10;;;;;;;18.62;79.11;99302.44;7338130;19;20018;-58
2023/07/27 03:21:52;;;;;;;0.10;0.10;;;;;;;18.61;78.61;99306.03;7361981;19;20011;-58
2023/07/27 03:24:17;;;;;;;0.00;0.00;;;;;;;18.59;79.17;99302.66;7358091;19;20014;-59
2023/07/27 03:26:43;;;;;;;0.10;0.10;;;;;;;18.58;79.57;99306.28;7362194;19;20007;-58
2023/07/27 03:29:09;;;;;;;0.00;0.00;;;;;;;18.52;79.42;99297.03;7347696;19;20302;-57
2023/07/27 03:31:34;;;;;;;0.00;0.00;;;;;;;18.55;79.87;99301.22;7360512;19;20015;-58
2023/07/27 03:33:59;;;;;;;0.10;0.10;;;;;;;18.55;79.64;99312.66;7359484;19;20697;-58
2023/07/27 03:36:25;;;;;;;0.00;0.00;;;;;;;18.56;79.57;99308.22;7360906;19;20003;-58
2023/07/27 03:38:50;;;;;;;0.10;0.10;;;;;;;18.55;79.35;99311.78;7358993;19;20010;-58
2023/07/27 03:41:16;;;;;;;0.10;0.10;;;;;;;18.54;79.04;99315.41;7361529;19;20026;-58
2023/07/27 03:43:41;;;;;;;0.00;0.00;;;;;;;18.47;79.18;99308.91;7359230;19;20022;-57
2023/07/27 03:46:07;;;;;;;0.00;0.00;;;;;;;18.54;78.76;99323.31;7361676;19;20019;-58
2023/07/27 03:48:32;;;;;;;0.10;0.10;;;;;;;18.50;79.59;99319.22;7361000;19;20046;-58
2023/07/27 03:51:02;;;;;;;0.10;0.10;;;;;;;18.53;79.11;99316.38;7360264;19;20086;-58
2023/07/27 03:53:28;;;;;;;0.10;0.10;;;;;;;18.49;79.31;99322.84;7358699;19;20646;-59
2023/07/27 03:55:53;;;;;;;0.00;0.00;;;;;;;18.47;79.60;99324.78;7356862;19;20445;-58
2023/07/27 03:58:19;;;;;;;0.05;0.05;;;;;;;18.45;79.54;99318.75;7360991;19;20011;-58
2023/07/27 04:00:44;;;;;;;0.10;0.10;;;;;;;18.42;79.57;99328.59;7355475;19;21587;-58
2023/07/27 04:03:10;;;;;;;0.10;0.10;;;;;;;18.42;79.69;99333.06;7360139;19;20070;-58
2023/07/27 04:05:35;;;;;;;0.10;0.10;;;;;;;18.41;79.54;99345.44;7359744;19;20010;-59
2023/07/27 04:08:00;;;;;;;0.10;0.10;;;;;;;18.35;79.35;99335.34;7360488;19;20041;-58
2023/07/27 04:10:26;;;;;;;0.10;0.10;;;;;;;18.37;79.77;99338.69;7356219;19;20010;-58
2023/07/27 04:12:52;;;;;;;0.08;0.08;;;;;;;18.36;79.38;99342.31;7360263;19;20465;-58
2023/07/27 04:15:18;;;;;;;0.00;0.00;;;;;;;18.34;79.54;99346.84;7354884;19;20023;-59
2023/07/27 04:17:43;;;;;;;0.10;0.10;;;;;;;18.29;79.84;99338.44;7361339;19;20006;-58
2023/07/27 04:20:09;;;;;;;0.10;0.10;;;;;;;18.30;79.84;99339.28;7357665;19;20017;-58
2023/07/27 04:22:35;;;;;;;0.08;0.08;;;;;;;18.29;79.99;99342.88;7358393;19;20018;-57
2023/07/27 04:25:00;;;;;;;0.00;0.00;;;;;;;18.28;80.23;99347.31;7356252;19;20024;-57
2023/07/27 04:27:25;;;;;;;0.10;0.10;;;;;;;18.26;80.12;99343.97;7361015;19;20809;-58
2023/07/27 04:29:51;;;;;;;0.10;0.10;;;;;;;18.25;80.51;99347.56;7357807;19;20026;-58
2023/07/27 04:32:17;;;;;;;0.00;0.00;;;;;;;18.26;80.54;99338.69;7356123;19;20014;-58
2023/07/27 04:34:42;;;;;;;0.03;0.03;;;;;;;18.24;80.39;99335.28;7352719;19;20007;-58
2023/07/27 04:37:08;;;;;;;0.10;0.10;;;;;;;18.24;80.30;99337.94;7359050;19;20048;-59
2023/07/27 04:39:33;;;;;;;0.08;0.08;;;;;;;18.23;80.09;99344.19;7359251;19;20473;-57
2023/07/27 04:41:59;;;;;;;0.05;0.05;;;;;;;18.25;80.33;99344.06;7357158;19;20021;-59
2023/07/27 04:44:26;;;;;;;0.10;0.10;;;;;;;18.24;80.66;99334.44;7357796;19;20021;-57
2023/07/27 04:46:52;;;;;;;0.10;0.10;;;;;;;18.24;79.91;99347.66;7356894;19;20018;-59
2023/07/27 04:49:17;;;;;;;0.00;0.00;;;;;;;18.23;80.56;99344.19;7360732;19;20018;-59
2023/07/27 04:51:43;;;;;;;0.10;0.10;;;;;;;18.22;80.61;99347.78;7358439;19;20123;-58
2023/07/27 04:54:08;;;;;;;0.00;0.00;;;;;;;18.13;80.62;99332.63;7352485;19;20011;-57
2023/07/27 04:56:34;;;;;;;0.10;0.10;;;;;;;18.22;80.36;99355.72;7359068;19;20036;-58
2023/07/27 04:58:59;;;;;;;0.10;0.10;;;;;;;18.22;79.65;99361.00;7356594;19;20013;-58
2023/07/27 05:01:25;;;;;;;0.10;0.10;;;;;;;18.20;80.43;99362.06;7353396;19;20832;-55
2023/07/27 05:03:51;;;;;;;0.10;0.10;;;;;;;18.21;79.96;99367.25;7355354;19;20018;-59
2023/07/27 05:06:16;;;;;;;0.10;0.10;;;;;;;18.21;80.03;99371.69;7353722;19;20018;-58
2023/07/27 05:08:42;;;;;;;0.10;0.10;;;;;;;18.20;80.17;99370.84;7353404;19;20876;-58
2023/07/27 05:11:07;;;;;;;0.10;0.10;;;;;;;18.21;80.48;99361.97;7355277;19;20023;-58
2023/07/27 05:13:33;;;;;;;0.10;0.10;;;;;;;18.08;80.56;99342.69;7358967;19;20022;-57
2023/07/27 05:16:01;;;;;;;0.10;0.10;;;;;;;18.23;80.08;99375.06;7356740;19;21461;-58
2023/07/27 05:18:26;;;;;;;;;;;;;;;18.26;78.78;99367.75;7358170;19;20018;-58
2023/07/27 05:20:52;;;;;;;0.00;0.00;;;;;;;18.12;80.41;99360.84;7354066;19;19923;-58
2023/07/27 05:23:17;;;;;;;0.10;0.10;;;;;;;18.20;80.16;99370.84;7356861;19;20021;-58
2023/07/27 05:25:42;;;;;;;0.10;0.10;;;;;;;18.22;80.47;99368.09;7360385;19;20470;-58
2023/07/27 05:28:08;;;;;;;0.00;0.00;;;;;;;18.22;80.18;99371.56;7353786;19;20007;-58
2023/07/27 05:30:33;;;;;;;0.10;0.10;;;;;;;18.23;79.61;99386.47;7357822;19;20046;-58
2023/07/27 05:32:59;;;;;;;0.10;0.10;;;;;;;18.22;79.85;99379.50;7357094;19;20031;-58
2023/07/27 05:35:24;;;;;;;0.10;0.10;;;;;;;18.11;79.75;99355.69;7359230;19;20006;-58
2023/07/27 05:37:49;;;;;;;0.10;0.10;;;;;;;18.21;79.76;99390.19;7352990;19;20757;-57
2023/07/27 05:40:15;;;;;;;0.10;0.10;;;;;;;18.19;80.28;99382.34;7356989;19;20014;-59
2023/07/27 05:42:42;;;;;;;0.10;0.10;;;;;;;18.18;80.26;99391.25;7351422;19;20010;-58
2023/07/27 05:45:08;;;;;;;0.10;0.10;;;;;;;18.19;80.11;99392.94;7359383;19;20010;-58
2023/07/27 05:47:33;;;;;;;0.10;0.10;;;;;;;18.19;80.06;99395.56;7349215;19;20019;-57
2023/07/27 05:49:59;;;;;;;0.10;0.10;;;;;;;18.21;80.50;99398.13;7357006;19;20051;-58
2023/07/27 05:52:25;;;;;;;0.00;0.00;;;;;;;18.21;80.19;99398.97;7352531;19;20054;-58
2023/07/27 05:54:50;;;;;;;0.10;0.10;;;;;;;18.22;80.25;99395.34;7359528;19;20078;-57
2023/07/27 05:57:16;;;;;;;0.10;0.10;;;;;;;18.23;79.92;99391.75;7353057;19;20964;-58
2023/07/27 05:59:41;;;;;;;0.10;0.10;;;;;;;18.19;80.51;99379.72;7353840;19;20042;-59
2023/07/27 06:02:07;;;;;;;0.10;0.10;;;;;;;18.26;80.26;99402.09;7352129;19;20007;-58
2023/07/27 06:04:32;;;;;;;0.10;0.10;;;;;;;18.28;80.10;99394.03;7357207;19;20035;-57
2023/07/27 06:06:58;;;;;;;0.10;0.10;;;;;;;18.28;80.22;99397.53;7352674;19;20046;-59
2023/07/27 06:09:24;;;;;;;0.05;0.05;;;;;;;18.26;80.03;99396.81;7347325;19;20030;-57
2023/07/27 06:11:50;;;;;;;0.10;0.10;;;;;;;18.27;79.98;99402.94;7352077;19;20155;-56
2023/07/27 06:14:15;;;;;;;0.10;0.10;;;;;;;18.24;79.93;99404.00;7355314;19;20034;-57
2023/07/27 06:16:40;;;;;;;0.10;0.10;;;;;;;18.13;80.33;99385.47;7356141;19;20078;-58
2023/07/27 06:19:06;;;;;;;0.08;0.08;;;;;;;18.24;80.07;99403.16;7354849;19;20848;-59
2023/07/27 06:21:32;;;;;;;0.10;0.10;;;;;;;18.23;80.16;99404.97;7351161;19;20021;-58
2023/07/27 06:23:57;;;;;;;0.10;0.10;;;;;;;18.23;79.88;99404.97;7352547;19;20025;-58
2023/07/27 06:26:22;;;;;;;0.00;0.00;;;;;;;18.23;80.22;99418.16;7355048;19;20006;-58
2023/07/27 06:28:48;;;;;;;0.03;0.03;;;;;;;18.24;79.91;99404.00;7349085;19;20710;-56
2023/07/27 06:31:13;;;;;;;0.10;0.10;;;;;;;18.23;80.29;99404.13;7354012;19;20021;-59
2023/07/27 06:33:39;;;;;;;0.00;0.00;;;;;;;18.26;80.32;99411.84;7352467;19;20015;-57
2023/07/27 06:36:07;;;;;;;0.10;0.10;;;;;;;18.20;80.40;99399.06;7353853;19;20109;-58
2023/07/27 06:38:32;;;;;;;0.10;0.10;;;;;;;18.27;80.39;99414.34;7353061;19;20018;-58
2023/07/27 06:40:58;;;;;;;0.10;0.10;;;;;;;18.28;80.53;99412.53;7351434;19;20026;-57
2023/07/27 06:43:23;;;;;;;0.10;0.10;;;;;;;18.31;80.76;99415.81;7350461;19;20118;-58
2023/07/27 06:45:49;;;;;;;0.10;0.10;;;;;;;18.33;80.21;99419.16;7350901;19;20085;-57
2023/07/27 06:48:15;;;;;;;0.00;0.00;;;;;;;18.38;80.80;99424.94;7354559;19;20366;-58
2023/07/27 06:50:40;;;;;;;0.10;0.10;;;;;;;18.42;80.83;99422.94;7354045;19;20506;-57
2023/07/27 06:53:06;;;;;;;0.00;0.00;;;;;;;18.48;80.91;99425.09;7353313;19;20026;-57
2023/07/27 06:55:31;;;;;;;0.10;0.10;;;;;;;18.53;80.88;99427.41;7354447;19;20103;-57
2023/07/27 06:57:57;;;;;;;0.10;0.10;;;;;;;18.59;80.84;99424.28;7351362;19;20022;-57
2023/07/27 07:00:23;;;;;;;0.05;0.05;;;;;;;18.58;80.96;99422.59;7351695;19;20011;-58
2023/07/27 07:02:49;;;;;;;0.10;0.10;;;;;;;18.66;80.09;99414.94;7351203;19;20025;-55
2023/07/27 07:05:14;;;;;;;0.10;0.10;;;;;;;18.75;80.50;99432.75;7351503;19;20011;-58
2023/07/27 07:07:40;;;;;;;0.10;0.10;;;;;;;18.81;80.00;99434.94;7351607;19;20918;-54
2023/07/27 07:10:07;;;;;;;0.08;0.08;;;;;;;18.75;80.07;99419.53;7353027;19;20026;-58
2023/07/27 07:12:33;;;;;;;0.10;0.10;;;;;;;18.89;79.89;99426.41;7351632;19;20041;-58
2023/07/27 07:14:58;;;;;;;0.10;0.10;;;;;;;18.93;80.18;99433.16;7353438;19;20774;-57
2023/07/27 07:17:24;;;;;;;0.00;0.00;;;;;;;18.98;79.81;99443.38;7351844;19;20863;-55
2023/07/27 07:19:49;;;;;;;0.10;0.10;;;;;;;18.82;80.13;99407.53;7354187;19;20007;-57
2023/07/27 07:22:15;;;;;;;0.10;0.10;;;;;;;19.05;80.01;99426.06;7343140;19;20730;-57
2023/07/27 07:24:40;;;;;;;0.10;0.10;;;;;;;19.07;79.94;99438.22;7353929;19;20025;-58
2023/07/27 07:27:06;;;;;;;0.00;0.00;;;;;;;19.14;79.98;99446.50;7351347;19;20043;-56
2023/07/27 07:29:31;;;;;;;0.10;0.10;;;;;;;19.18;80.09;99448.81;7360596;19;20039;-58
2023/07/27 07:31:57;;;;;;;0.10;0.10;;;;;;;19.22;79.92;99444.13;7332764;19;20019;-58
2023/07/27 07:34:22;;;;;;;0.10;0.10;;;;;;;19.28;79.63;99448.91;7357575;19;20011;-58
2023/07/27 07:36:48;;;;;;;0.10;0.10;;;;;;;19.32;79.86;99450.38;7353981;19;20045;-58
2023/07/27 07:39:13;;;;;;;0.10;0.10;;;;;;;19.36;79.73;99454.47;7355147;19;20010;-58
2023/07/27 07:41:38;;;;;;;0.10;0.10;;;;;;;19.42;79.50;99455.78;7355700;19;21202;-57
2023/07/27 07:44:04;;;;;;;0.10;0.10;;;;;;;19.45;79.49;99453.72;7356754;19;20762;-58
2023/07/27 07:46:29;;;;;;;0.10;0.10;;;;;;;19.49;79.37;99456.13;7357278;19;20015;-57
2023/07/27 07:48:57;;;;;;;0.10;0.10;;;;;;;19.54;79.70;99454.78;7356020;19;20038;-58
2023/07/27 07:51:22;;;;;;;0.10;0.10;;;;;;;19.60;78.94;99458.78;7358194;19;20029;-57
2023/07/27 07:53:47;;;;;;;0.10;0.10;;;;;;;19.62;78.88;99462.19;7356722;19;20010;-58
2023/07/27 07:56:15;;;;;;;0.10;0.10;;;;;;;19.65;79.24;99472.50;7353394;19;20006;-58
2023/07/27 07:58:41;;;;;;;0.00;0.00;;;;;;;19.67;79.32;99476.72;7354825;19;20011;-55
2023/07/27 08:01:07;;;;;;;0.00;0.00;;;;;;;19.71;79.09;99472.00;7354519;19;20403;-59
2023/07/27 08:03:32;;;;;;;0.10;0.10;;;;;;;19.74;79.18;99482.38;7355909;19;20035;-59
2023/07/27 08:05:58;;;;;;;0.03;0.03;;;;;;;19.76;79.11;99479.59;7354675;19;20010;-57
2023/07/27 08:08:24;;;;;;;0.03;0.03;;;;;;;19.79;79.04;99485.50;7357461;19;20015;-58
2023/07/27 08:10:49;;;;;;;0.00;0.00;;;;;;;19.83;79.21;99486.09;7356458;19;20015;-58
2023/07/27 08:13:14;;;;;;;0.10;0.10;;;;;;;19.86;78.86;99497.28;7358049;19;20030;-58
2023/07/27 08:15:40;;;;;;;0.00;0.00;;;;;;;19.90;78.97;99501.34;7355440;19;20010;-58
2023/07/27 08:18:05;;;;;;;0.10;0.10;;;;;;;19.95;79.26;99501.84;7356723;19;20026;-58
2023/07/27 08:20:31;;;;;;;0.10;0.10;;;;;;;20.00;79.00;99503.28;7354308;19;20942;-58
2023/07/27 08:22:56;;;;;;;0.10;0.10;;;;;;;20.07;79.16;99515.06;7357859;19;20014;-57
2023/07/27 08:25:22;;;;;;;0.10;0.10;;;;;;;20.11;78.48;99506.72;7356330;19;20006;-57
2023/07/27 08:27:48;;;;;;;0.10;0.10;;;;;;;20.16;78.45;99514.31;7356166;19;20018;-56
2023/07/27 08:30:14;;;;;;;0.10;0.10;;;;;;;20.19;78.83;99514.91;7354634;19;20029;-56
2023/07/27 08:32:40;;;;;;;0.10;0.10;;;;;;;20.23;78.31;99515.50;7357158;19;20011;-57
2023/07/27 08:35:06;;;;;;;0.10;0.10;;;;;;;20.29;78.68;99519.47;7354140;19;20026;-58
2023/07/27 08:37:31;;;;;;;0.10;0.10;;;;;;;20.35;78.24;99529.56;7355754;19;20018;-57
2023/07/27 08:39:58;;;;;;;0.10;0.10;;;;;;;20.39;78.58;99526.53;7356843;19;20010;-56
2023/07/27 08:42:24;;;;;;;0.10;0.10;;;;;;;20.43;78.10;99533.28;7357696;19;20010;-58
2023/07/27 08:44:49;;;;;;;0.10;0.10;;;;;;;20.44;78.26;99527.00;7355483;19;20093;-58
2023/07/27 08:47:15;;;;;;;0.10;0.10;;;;;;;20.47;78.33;99526.75;7358615;19;20016;-58
2023/07/27 08:49:43;;;;;;;0.10;0.10;;;;;;;20.53;78.23;99532.53;7355871;19;20036;-58
2023/07/27 08:52:12;;;;;;;0.10;0.10;;;;;;;20.54;78.48;99535.06;7359431;19;20014;-57
2023/07/27 08:54:37;;;;;;;0.00;0.00;;;;;;;20.57;78.05;99531.31;7353080;19;20017;-58
2023/07/27 08:57:03;;;;;;;0.10;0.10;;;;;;;20.60;78.32;99534.56;7357147;19;20011;-58
2023/07/27 08:59:29;;;;;;;0.10;0.10;;;;;;;20.62;78.19;99521.16;7354174;19;20658;-58
2023/07/27 09:01:54;;;;;;;0.10;0.10;;;;;;;20.70;78.22;99532.00;7339987;19;20014;-58
2023/07/27 09:04:19;;;;;;;0.10;0.10;;;;;;;20.72;77.78;99528.22;7355290;19;20023;-58
2023/07/27 09:06:49;;;;;;;0.10;0.10;;;;;;;20.72;78.35;99516.78;7350884;19;20010;-58
2023/07/27 09:09:14;;;;;;;0.10;0.10;;;;;;;20.87;77.76;99536.72;7354228;19;20125;-58
2023/07/27 09:11:41;;;;;;;0.10;0.10;;;;;;;20.95;77.79;99544.88;7340068;19;20786;-56
2023/07/27 09:14:07;;;;;;;0.10;0.10;;;;;;;21.00;77.53;99541.84;7352582;19;20018;-58
2023/07/27 09:16:34;;;;;;;0.10;0.10;;;;;;;21.08;77.26;99546.50;7354334;19;20188;-58
2023/07/27 09:19:01;;;;;;;0.10;0.10;;;;;;;21.11;77.47;99548.91;7349479;19;20046;-57
2023/07/27 09:21:27;;;;;;;0.08;0.08;;;;;;;21.03;77.25;99541.56;7353399;19;21317;-58
2023/07/27 09:23:52;;;;;;;0.08;0.08;;;;;;;21.17;77.09;99556.34;7354715;19;20011;-57
2023/07/27 09:26:27;;;;;;;0.10;0.10;;;;;;;21.33;77.04;99563.84;7347734;19;20026;-58
2023/07/27 09:28:54;;;;;;;0.10;0.10;;;;;;;21.33;77.12;99569.16;7352179;19;20044;-58
2023/07/27 09:31:19;;;;;;;0.10;0.10;;;;;;;21.34;76.97;99568.19;7350408;19;20063;-57
2023/07/27 09:33:45;;;;;;;0.10;0.10;;;;;;;21.39;77.16;99563.31;7352519;19;20014;-58
2023/07/27 09:36:10;;;;;;;0.10;0.10;;;;;;;21.41;77.26;99559.59;7351729;19;20581;-56
2023/07/27 09:38:36;;;;;;;0.10;0.10;;;;;;;21.51;77.16;99562.28;7351847;19;20103;-58
2023/07/27 09:41:08;;;;;;;0.08;0.08;;;;;;;21.56;77.02;99551.28;7349823;19;20034;-56
2023/07/27 09:43:40;;;;;;;0.10;0.10;;;;;;;21.74;76.65;99568.25;7351587;19;20019;-57
2023/07/27 09:46:06;;;;;;;0.10;0.10;;;;;;;21.73;76.76;99566.56;7352732;19;20014;-59
2023/07/27 09:48:32;;;;;;;0.10;0.10;;;;;;;21.83;76.38;99556.00;7348883;19;20577;-56
2023/07/27 09:51:01;;;;;;;0.10;0.10;;;;;;;21.88;76.21;99573.22;7352486;19;20490;-58
2023/07/27 09:53:31;;;;;;;0.00;0.00;;;;;;;21.97;75.96;99556.47;7348164;19;20010;-56
2023/07/27 09:55:58;;;;;;;0.10;0.10;;;;;;;21.98;75.82;99566.09;7350789;19;20010;-58
2023/07/27 09:58:25;;;;;;;0.10;0.10;;;;;;;22.00;75.66;99569.50;7350567;19;20591;-59
2023/07/27 10:00:50;;;;;;;0.10;0.10;;;;;;;22.02;75.93;99562.22;7349652;19;20046;-58
2023/07/27 10:03:15;;;;;;;0.10;0.10;;;;;;;22.07;75.82;99568.94;7352591;19;20103;-57
2023/07/27 10:05:42;;;;;;;0.10;0.10;;;;;;;22.11;76.13;99571.22;7352124;19;20154;-57
2023/07/27 10:08:08;;;;;;;0.10;0.10;;;;;;;22.18;76.09;99571.50;7351811;19;20014;-56
2023/07/27 10:10:33;;;;;;;0.10;0.10;;;;;;;;;;7350777;19;20010;-58
2023/07/27 10:13:07;;;;;;;0.10;0.10;;;;;;;22.34;75.98;99574.47;7351082;19;20018;-57
2023/07/27 10:15:39;;;;;;;0.10;0.10;;;;;;;22.25;75.10;99556.69;7353381;19;20010;-58
2023/07/27 10:18:05;;;;;;;0.08;0.08;;;;;;;22.35;74.39;99576.16;7352481;19;20039;-57
2023/07/27 10:20:35;;;;;;;0.10;0.10;;;;;;;22.38;75.10;99583.03;7350569;19;20014;-57
2023/07/27 10:23:18;;;;;;;0.05;0.05;;;;;;;22.47;75.47;99577.72;7352700;19;20018;-58
2023/07/27 10:25:56;;;;;;;0.10;0.10;;;;;;;22.51;75.14;99573.81;7353099;19;20006;-56
2023/07/27 10:28:31;;;;;;;0.10;0.10;;;;;;;22.61;74.95;99578.28;7348947;19;20760;-58
2023/07/27 10:31:26;;;;;;;0.10;0.10;;;;;;;22.70;75.58;99582.78;7350618;19;20010;-58
2023/07/27 10:34:07;;;;;;;0.10;0.10;;;;;;;22.78;75.40;99582.94;7246385;19;2004232;-57
2023/07/27 10:36:52;;;;;;;0.08;0.08;;;;;;;22.95;75.59;99587.56;7349630;19;20107;-56
2023/07/27 10:39:24;;;;;;;0.10;0.10;;;;;;;23.04;74.87;99584.06;7352236;19;20028;-58
2023/07/27 10:42:02;;;;;;;0.10;0.10;;;;;;;23.18;75.04;99582.78;7350252;19;20374;-58
2023/07/27 10:44:42;;;;;;;0.00;0.00;;;;;;;23.29;74.86;99589.78;7347965;19;20593;-58
2023/07/27 10:47:15;;;;;;;0.10;0.10;;;;;;;23.32;73.86;99589.50;7347354;19;20013;-58
2023/07/27 10:49:42;;;;;;;0.10;0.10;;;;;;;23.32;73.80;99594.84;7349100;19;20034;-57
2023/07/27 10:52:09;;;;;;;0.10;0.10;;;;;;;23.37;73.87;99591.72;7349774;19;20010;-58
2023/07/27 10:54:39;;;;;;;;;;;;;;;23.56;74.80;99602.31;7351123;19;20018;-57
2023/07/27 10:57:09;;;;;;;0.10;0.10;;;;;;;23.50;74.49;99578.91;7350532;19;19918;-57
2023/07/27 10:59:38;;;;;;;0.10;0.10;;;;;;;23.61;73.01;99588.56;7349543;19;20018;-58
2023/07/27 11:02:08;;;;;;;0.10;0.10;;;;;;;23.65;73.20;99600.66;7352243;19;20605;-58
2023/07/27 11:04:34;;;;;;;0.10;0.10;;;;;;;23.63;72.71;99591.94;7354543;19;20086;-57
2023/07/27 11:07:00;;;;;;;0.10;0.10;;;;;;;23.55;72.68;99585.50;7354623;19;20356;-58
2023/07/27 11:09:26;;;;;;;0.10;0.10;;;;;;;23.58;72.21;99594.22;7356435;19;20026;-58
2023/07/27 11:11:59;;;;;;;0.10;0.10;;;;;;;23.71;72.94;99594.72;7356245;19;20381;-58
2023/07/27 11:14:24;;;;;;;0.05;0.05;;;;;;;23.67;72.38;99588.88;7357289;19;20034;-57
2023/07/27 11:16:51;;;;;;;0.00;0.00;;;;;;;23.77;73.07;99592.34;7357687;19;20021;-57
2023/07/27 11:19:17;;;;;;;0.10;0.10;;;;;;;23.76;73.24;99579.13;7353124;19;20792;-58
2023/07/27 11:21:42;;;;;;;0.05;0.05;;;;;;;23.90;72.82;99594.66;7358154;19;20021;-57
2023/07/27 11:24:08;;;;;;;0.15;0.15;;;;;;;23.98;72.29;99596.59;7352381;19;20104;-58
2023/07/27 11:26:35;;;;;;;0.13;0.13;;;;;;;24.01;72.51;99591.78;7355375;19;20038;-56
2023/07/27 11:29:00;;;;;;;0.10;0.10;;;;;;;24.05;72.46;99582.53;7353620;19;20020;-58
2023/07/27 11:31:26;;;;;;;0.10;0.10;;;;;;;24.15;70.61;99587.81;7357395;19;20038;-58
2023/07/27 11:33:56;;;;;;;0.10;0.10;;;;;;;24.26;71.66;99595.59;7352764;19;20010;-58
2023/07/27 11:36:22;;;;;;;0.00;0.00;;;;;;;24.25;71.09;99593.09;7356503;19;20011;-58